Ana Sayfa
METAR-TAF:

METAR-TAF

Havaalanları :

New Braunfels Municipal Airport

New Braunfels, Teksas, Amerika Birleşik Devletleri

Enlem: 29-42-31N, Boylam: 098-02-43W, yükseklik: 197 m

Güncel hava durumu gözlemi

Rapor saat 04:51 UTC de 59 dakika önce yapıldı.
Rüzgar güneydan 8 kt
Sıcaklık 27°C
Nem 74%
Basınç 1015 hPa
Görüş mesafesi: 16.1 km
Açık gökyüzü

METAR: KBAZ 160451Z AUTO 18008KT 10SM CLR 27/22 A2997 RMK AO2 SLP139 T02720222 TSNO

Saat: 00:50 (05:50 UTC)


TAF: eksik

4.000'den fazla havaalanı için hava durumu gözlemleri ve tahminleri (METAR ve TAF raporları).

Kullanılabilir istasyonlar harita üzerinde sarı ve kırmızı noktalarla gösterilir.

İstasyonun adını görmek için fareyi noktanın üzerinde gezdirin.

Sonrasında hava gözlem ve tahminlerini görmek için tıklayın.

Haritayı değiştirmek için: yaklaştırmak için siyah artı işaretli yeşil düğmeye ve uzaklaştırmak için de eksi işaretli düğmeye hızla tıklayın; bitişik haritalar için yeşil okları kullanın.


METAR-TAF: